Time;durP1;ratioP1;P1;durP2;ratioP2;P2;SDS_P1;SDS_P2;PMS_P1;PMS_P2;Temp;Humidity;BMP_temperature;BMP_pressure;BME280_temperature;BME280_humidity;BME280_pressure;Samples;Min_cycle;Max_cycle;Signal;HPM_P1;HPM_P2
2022/06/26 00:01:00;;;;;;;5.35;2.15;;;;;;;19.22;91.85;94839.09;4935639;29;20175;-79
2022/06/26 00:03:26;;;;;;;5.80;3.40;;;;;;;18.97;93.07;94831.84;4936041;29;20195;-79
2022/06/26 00:05:52;;;;;;;5.90;3.33;;;;;;;18.77;94.16;94829.09;4935435;29;20240;-79
2022/06/26 00:08:18;;;;;;;5.80;2.17;;;;;;;18.70;95.09;94813.34;4935418;29;20190;-79
2022/06/26 00:10:45;;;;;;;7.03;2.35;;;;;;;18.84;94.76;94822.47;4935727;29;20179;-79
2022/06/26 00:13:10;;;;;;;3.20;2.20;;;;;;;19.01;93.38;94832.94;4935129;29;20238;-79
2022/06/26 00:15:36;;;;;;;6.68;2.80;;;;;;;19.00;93.22;94827.84;4935488;29;20179;-78
2022/06/26 00:18:01;;;;;;;9.55;5.03;;;;;;;19.01;93.51;94840.94;4935599;29;20183;-78
2022/06/26 00:20:27;;;;;;;5.28;2.67;;;;;;;18.97;93.43;94829.16;4935359;29;20258;-79
2022/06/26 00:22:52;;;;;;;4.28;2.05;;;;;;;19.01;93.32;94827.59;4935052;29;20179;-78
2022/06/26 00:25:18;;;;;;;6.65;2.85;;;;;;;18.82;93.33;94821.13;4935214;29;20253;-79
2022/06/26 00:27:45;;;;;;;6.85;3.65;;;;;;;18.93;93.86;94830.78;4934688;29;20205;-78
2022/06/26 00:30:11;;;;;;;4.97;3.17;;;;;;;18.96;93.86;94827.56;4934595;29;20177;-78
2022/06/26 00:32:37;;;;;;;4.30;2.70;;;;;;;19.02;92.97;94823.06;4934595;29;20598;-78
2022/06/26 00:35:02;;;;;;;8.60;4.05;;;;;;;19.19;92.96;94826.28;4934157;29;20586;-78
2022/06/26 00:37:28;;;;;;;6.55;2.25;;;;;;;19.30;93.08;94832.41;4934415;29;20202;-78
2022/06/26 00:39:53;;;;;;;7.38;2.83;;;;;;;19.35;92.79;94824.44;4934429;29;20178;-78
2022/06/26 00:42:19;;;;;;;4.95;2.38;;;;;;;19.39;92.62;94825.50;4934276;29;20179;-79
2022/06/26 00:44:44;;;;;;;3.42;2.00;;;;;;;19.40;93.43;94819.88;4934164;29;20175;-78
2022/06/26 00:47:09;;;;;;;5.93;3.33;;;;;;;19.47;93.66;94822.28;4934681;29;20167;-78
2022/06/26 00:49:35;;;;;;;6.00;2.53;;;;;;;19.56;93.48;94826.06;4931076;29;20641;-78
2022/06/26 00:52:01;;;;;;;6.90;3.13;;;;;;;19.57;93.30;94825.81;4934767;29;20175;-78
2022/06/26 00:54:29;;;;;;;5.43;2.13;;;;;;;19.61;92.49;94828.75;4934417;29;20236;-78
2022/06/26 00:56:56;;;;;;;3.85;2.83;;;;;;;19.61;92.83;94830.63;4934664;29;20201;-78
2022/06/26 00:59:24;;;;;;;4.60;2.28;;;;;;;19.65;92.27;94818.31;4919169;29;20194;-78
2022/06/26 01:01:49;;;;;;;8.73;2.35;;;;;;;19.50;91.81;94825.28;4941283;29;20183;-78
2022/06/26 01:04:16;;;;;;;4.13;2.40;;;;;;;19.50;92.44;94822.59;4941184;29;20522;-78
2022/06/26 01:06:42;;;;;;;4.47;2.10;;;;;;;19.49;92.90;94826.34;4941275;29;20261;-78
2022/06/26 01:09:10;;;;;;;8.73;2.53;;;;;;;19.49;92.78;94836.22;4941102;29;20179;-78
2022/06/26 01:11:35;;;;;;;6.40;2.40;;;;;;;19.55;92.67;94835.94;4933169;29;20185;-78
2022/06/26 01:14:01;;;;;;;4.95;2.55;;;;;;;19.51;92.66;94836.75;4941216;29;20671;-78
2022/06/26 01:16:27;;;;;;;3.00;2.67;;;;;;;19.50;92.76;94838.63;4941004;29;20583;-78
2022/06/26 01:18:56;;;;;;;4.57;2.58;;;;;;;19.45;93.14;94840.47;4941271;29;20214;-78
2022/06/26 01:21:24;;;;;;;3.85;2.40;;;;;;;19.47;93.45;94838.31;4941198;29;20657;-78
2022/06/26 01:23:51;;;;;;;6.93;2.78;;;;;;;19.53;92.85;94837.28;4940583;29;20167;-78
2022/06/26 01:26:17;;;;;;;3.17;2.72;;;;;;;19.53;92.10;94835.44;4940836;29;20167;-78
2022/06/26 01:28:43;;;;;;;5.63;2.60;;;;;;;19.52;92.53;94831.16;4941013;29;20183;-78
2022/06/26 01:31:09;;;;;;;5.30;2.53;;;;;;;19.53;92.09;94826.63;4940880;29;20186;-78
2022/06/26 01:33:36;;;;;;;5.30;2.63;;;;;;;19.53;92.04;94831.97;4941230;29;20203;-78
2022/06/26 01:36:01;;;;;;;5.13;2.30;;;;;;;19.53;91.85;94837.28;4940855;29;20271;-78
2022/06/26 01:38:27;;;;;;;5.30;2.88;;;;;;;19.50;91.91;94846.63;4940680;29;20215;-78
2022/06/26 01:40:55;;;;;;;6.97;2.75;;;;;;;19.43;91.54;94826.56;4941057;29;20557;-78
2022/06/26 01:43:23;;;;;;;8.23;3.30;;;;;;;19.48;91.82;94853.31;4940425;29;20213;-78
2022/06/26 01:45:51;;;;;;;12.10;4.85;;;;;;;19.43;92.32;94851.41;4940691;29;20254;-78
2022/06/26 01:48:18;;;;;;;9.55;4.57;;;;;;;19.42;92.49;94847.13;4940342;29;20187;-78
2022/06/26 01:50:44;;;;;;;16.10;8.55;;;;;;;19.45;92.17;94859.16;4940741;29;20638;-78
2022/06/26 01:53:10;;;;;;;16.75;8.85;;;;;;;19.44;92.64;94866.38;4940560;29;20261;-78
2022/06/26 01:55:35;;;;;;;6.60;3.33;;;;;;;19.42;92.44;94862.34;4940391;29;20281;-77
2022/06/26 01:58:02;;;;;;;8.88;3.53;;;;;;;19.39;92.46;94863.66;4940686;29;20282;-78
2022/06/26 02:00:36;;;;;;;11.20;4.72;;;;;;;19.43;92.29;94863.94;4940664;29;20163;-78
2022/06/26 02:03:04;;;;;;;12.25;6.63;;;;;;;19.40;92.84;94856.47;4940443;29;20174;-78
2022/06/26 02:05:29;;;;;;;15.35;6.50;;;;;;;19.43;92.67;94867.44;4940500;29;20168;-78
2022/06/26 02:07:55;;;;;;;7.72;4.65;;;;;;;19.42;92.27;94867.69;4940271;29;20552;-78
2022/06/26 02:15:52;;;;;;;11.35;4.07;;;;;;;19.41;92.00;94868.75;4937429;29;20214;-78
2022/06/26 02:18:19;;;;;;;4.55;2.97;;;;;;;19.51;92.10;94882.16;4937848;29;20718;-78
2022/06/26 02:20:44;;;;;;;8.13;3.10;;;;;;;19.56;92.25;94879.47;4937638;29;20218;-78
2022/06/26 02:23:10;;;;;;;15.02;7.50;;;;;;;19.54;92.51;94871.75;4936826;29;20210;-77
2022/06/26 02:25:36;;;;;;;13.77;7.75;;;;;;;19.53;92.49;94864.00;4937240;29;20225;-77
2022/06/26 02:28:03;;;;;;;6.50;4.25;;;;;;;19.52;91.96;94870.41;4937191;29;20202;-77
2022/06/26 02:30:29;;;;;;;7.30;3.47;;;;;;;19.49;92.21;94873.59;4937124;29;20182;-77
2022/06/26 02:32:58;;;;;;;15.02;8.73;;;;;;;19.42;91.37;94868.50;4940326;29;20262;-77
2022/06/26 02:35:24;;;;;;;6.88;3.58;;;;;;;19.40;91.75;94869.81;4936662;29;20199;-77
2022/06/26 02:37:51;;;;;;;11.73;4.38;;;;;;;19.40;91.49;94869.81;4937089;29;20179;-77
2022/06/26 02:40:19;;;;;;;7.70;4.47;;;;;;;19.38;92.39;94874.59;4937053;29;20195;-77
2022/06/26 02:42:45;;;;;;;8.35;5.07;;;;;;;19.30;92.63;94865.25;4936663;29;20183;-78
2022/06/26 02:45:11;;;;;;;9.57;5.75;;;;;;;19.39;93.34;94879.69;4936864;29;20212;-78
2022/06/26 02:47:36;;;;;;;10.70;5.15;;;;;;;19.42;93.43;94889.06;4936351;29;20187;-78
2022/06/26 02:50:03;;;;;;;8.18;4.97;;;;;;;19.43;92.62;94896.00;4936756;29;20190;-78
2022/06/26 02:52:29;;;;;;;21.55;10.98;;;;;;;19.43;92.63;94896.00;4936549;29;20238;-78
2022/06/26 02:54:54;;;;;;;13.90;7.00;;;;;;;19.38;91.61;94890.63;4936430;29;20203;-77
2022/06/26 02:57:20;;;;;;;12.60;4.65;;;;;;;19.25;91.78;94891.16;4936348;29;20225;-78
2022/06/26 02:59:45;;;;;;;13.75;5.07;;;;;;;19.23;92.31;94892.22;4936711;29;20187;-77
2022/06/26 03:02:10;;;;;;;17.08;7.78;;;;;;;19.20;92.52;94892.72;4936469;29;20179;-77
2022/06/26 03:04:36;;;;;;;10.00;4.63;;;;;;;19.20;92.36;94882.06;4936502;29;20183;-77
2022/06/26 03:07:01;;;;;;;7.25;2.83;;;;;;;19.00;92.14;94860.66;4936643;29;20273;-77
2022/06/26 03:09:27;;;;;;;5.30;3.38;;;;;;;19.18;92.28;94902.88;4937588;29;20833;-77
2022/06/26 03:11:52;;;;;;;7.30;3.53;;;;;;;19.16;92.99;94901.53;4937876;29;20183;-78
2022/06/26 03:14:18;;;;;;;7.15;4.97;;;;;;;19.16;93.50;94901.53;4937976;29;20648;-77
2022/06/26 03:16:43;;;;;;;8.50;4.18;;;;;;;19.24;93.02;94898.34;4937161;29;20249;-77
2022/06/26 03:19:09;;;;;;;8.02;3.22;;;;;;;19.29;92.86;94900.22;4936080;29;20179;-77
2022/06/26 03:21:34;;;;;;;8.27;3.40;;;;;;;19.32;92.51;94910.38;4936538;29;20171;-77
2022/06/26 03:24:03;;;;;;;8.73;6.32;;;;;;;19.32;92.51;94905.03;4936438;29;20175;-77
2022/06/26 03:26:33;;;;;;;20.50;10.52;;;;;;;19.31;92.76;94898.09;4936456;29;20645;-77
2022/06/26 03:29:00;;;;;;;33.83;19.65;;;;;;;19.35;92.67;94912.53;4935933;29;20258;-77
2022/06/26 03:31:26;;;;;;;22.70;11.73;;;;;;;19.37;93.28;94908.50;4935512;29;20346;-78
2022/06/26 03:33:51;;;;;;;24.45;13.73;;;;;;;19.39;92.53;94905.59;4935702;29;20206;-77
2022/06/26 03:36:17;;;;;;;7.85;4.63;;;;;;;19.38;91.99;94906.66;4935852;29;20663;-78
2022/06/26 03:38:43;;;;;;;5.28;4.10;;;;;;;19.40;91.70;94908.00;4935751;29;20818;-78
2022/06/26 03:41:10;;;;;;;15.32;5.28;;;;;;;19.34;91.87;94924.28;4935658;29;20186;-78
2022/06/26 03:43:35;;;;;;;14.07;6.38;;;;;;;19.37;91.86;94918.41;4935876;29;20281;-78
2022/06/26 03:46:01;;;;;;;7.15;4.22;;;;;;;19.14;91.44;94888.47;4935932;29;20672;-78
2022/06/26 03:48:26;;;;;;;6.38;4.68;;;;;;;19.36;92.04;94922.16;4935797;29;20199;-78
2022/06/26 03:50:52;;;;;;;6.82;3.63;;;;;;;19.23;91.91;94905.56;4935593;29;20190;-78
2022/06/26 03:53:17;;;;;;;9.60;4.13;;;;;;;19.37;92.44;94934.44;4935239;29;20262;-78
2022/06/26 03:55:43;;;;;;;8.15;4.25;;;;;;;19.41;92.27;94930.16;4934651;29;20274;-78
2022/06/26 03:58:09;;;;;;;7.95;3.70;;;;;;;19.29;92.63;94926.91;4934767;29;20222;-78
2022/06/26 04:00:34;;;;;;;6.82;3.42;;;;;;;19.26;92.79;94928.28;4934582;29;20191;-78
2022/06/26 04:03:04;;;;;;;8.18;3.60;;;;;;;19.19;93.28;94911.72;4935057;29;20176;-78
2022/06/26 04:05:31;;;;;;;17.30;3.38;;;;;;;19.23;93.31;94912.75;4935143;29;20171;-78
2022/06/26 04:07:57;;;;;;;15.23;3.55;;;;;;;19.26;93.53;94911.44;4935120;29;20652;-78
2022/06/26 04:10:22;;;;;;;6.72;3.72;;;;;;;19.50;94.32;94931.28;4935116;29;20202;-78
2022/06/26 04:12:48;;;;;;;3.42;3.10;;;;;;;19.64;93.17;94935.03;4934270;29;20175;-76
2022/06/26 04:15:13;;;;;;;9.77;3.45;;;;;;;19.91;91.83;94927.59;4933812;29;20756;-76
2022/06/26 04:17:39;;;;;;;7.10;3.55;;;;;;;20.13;90.59;94927.31;4934093;29;20659;-76
2022/06/26 04:20:05;;;;;;;10.82;6.63;;;;;;;20.25;89.35;94925.16;4934005;29;20189;-75
2022/06/26 04:22:30;;;;;;;14.45;9.95;;;;;;;20.29;89.24;94925.44;4933779;29;20182;-75
2022/06/26 04:24:56;;;;;;;28.92;22.08;;;;;;;20.40;88.75;94928.94;4933752;29;20651;-75
2022/06/26 04:27:21;;;;;;;32.83;25.00;;;;;;;20.50;87.29;94927.03;4933769;29;20179;-76
2022/06/26 04:29:46;;;;;;;33.08;26.00;;;;;;;20.60;87.10;94928.88;4916374;29;20175;-75
2022/06/26 04:32:12;;;;;;;15.43;12.43;;;;;;;20.71;86.47;94928.59;4933629;29;20559;-75
2022/06/26 04:34:37;;;;;;;14.68;11.02;;;;;;;20.80;85.66;94930.69;4932873;29;20285;-76
2022/06/26 04:37:04;;;;;;;14.93;9.60;;;;;;;20.82;85.47;94933.91;4933479;29;20182;-75
2022/06/26 04:39:29;;;;;;;14.77;11.27;;;;;;;20.88;85.39;94932.81;4933491;29;20179;-76
2022/06/26 04:41:55;;;;;;;14.98;10.80;;;;;;;20.90;85.59;94938.69;4916576;29;20250;-76
2022/06/26 04:44:20;;;;;;;16.25;11.27;;;;;;;20.91;85.80;94937.63;4933352;29;20175;-76
2022/06/26 04:46:46;;;;;;;16.67;10.52;;;;;;;20.75;86.19;94912.81;4933475;29;20185;-76
2022/06/26 04:49:12;;;;;;;11.85;9.02;;;;;;;21.00;86.90;94934.13;4934205;29;20197;-76
2022/06/26 04:51:38;;;;;;;10.70;7.75;;;;;;;21.26;87.46;94934.03;4933844;29;20191;-77
2022/06/26 04:54:05;;;;;;;14.93;7.50;;;;;;;21.56;85.38;94938.41;4933526;29;20205;-77
2022/06/26 04:56:31;;;;;;;16.15;7.70;;;;;;;21.92;82.93;94947.81;4932970;29;20197;-77
2022/06/26 04:58:56;;;;;;;11.27;7.65;;;;;;;22.20;81.74;94944.44;4933214;29;20716;-77
2022/06/26 05:01:24;;;;;;;9.32;7.10;;;;;;;22.54;81.95;94944.38;4933825;29;20600;-77
2022/06/26 05:03:49;;;;;;;8.88;5.10;;;;;;;22.88;79.08;94951.59;4936007;29;20269;-77
2022/06/26 05:06:15;;;;;;;7.07;4.93;;;;;;;23.04;78.21;94947.63;4933217;29;20254;-76
2022/06/26 05:08:40;;;;;;;8.07;4.70;;;;;;;23.13;77.95;94951.28;4920420;29;20207;-76
2022/06/26 05:11:06;;;;;;;8.38;3.65;;;;;;;23.18;76.90;94955.78;4932138;29;20194;-76
2022/06/26 05:13:32;;;;;;;8.23;3.15;;;;;;;23.03;76.02;94940.66;4929695;29;20191;-76
2022/06/26 05:15:57;;;;;;;9.00;5.13;;;;;;;23.09;76.12;94961.00;4933047;29;20187;-76
2022/06/26 05:18:23;;;;;;;24.83;12.52;;;;;;;22.99;76.43;94971.88;4933360;29;20175;-75
2022/06/26 05:20:49;;;;;;;32.10;18.88;;;;;;;22.94;76.40;94972.72;4932668;29;20266;-74
2022/06/26 05:23:14;;;;;;;19.52;10.48;;;;;;;22.94;76.51;94970.03;4933057;29;20266;-75
2022/06/26 05:25:41;;;;;;;14.13;4.07;;;;;;;23.04;76.05;94968.31;4933048;29;20221;-75
2022/06/26 05:28:06;;;;;;;6.97;4.65;;;;;;;23.14;76.68;94981.63;4932427;29;20183;-75
2022/06/26 05:30:32;;;;;;;12.07;5.45;;;;;;;23.21;76.69;94982.88;4935382;29;20687;-75
2022/06/26 05:32:57;;;;;;;5.30;3.40;;;;;;;23.37;75.01;94982.69;4932915;29;20199;-75
2022/06/26 05:35:23;;;;;;;9.93;3.30;;;;;;;23.52;74.55;94986.06;4932914;29;20199;-75
2022/06/26 05:37:48;;;;;;;5.00;3.47;;;;;;;24.07;74.68;94997.91;4934633;29;20644;-75
2022/06/26 05:40:14;;;;;;;7.47;4.00;;;;;;;24.94;68.49;94993.84;4932611;29;20202;-74
2022/06/26 05:42:39;;;;;;;4.25;3.65;;;;;;;25.46;67.52;94998.75;4932789;29;20258;-75
2022/06/26 05:45:05;;;;;;;8.38;3.17;;;;;;;25.72;65.40;94984.75;4933644;29;20257;-76
2022/06/26 05:47:31;;;;;;;5.55;2.88;;;;;;;25.83;65.91;95003.13;4937219;29;20179;-79
2022/06/26 05:49:56;;;;;;;5.85;3.97;;;;;;;25.77;67.14;95007.03;4937242;29;20194;-78
2022/06/26 05:52:21;;;;;;;7.35;3.35;;;;;;;25.58;67.12;95003.66;4937363;29;20546;-77
2022/06/26 05:54:48;;;;;;;6.63;3.55;;;;;;;25.19;66.68;95012.22;4936860;29;20684;-78
2022/06/26 05:57:14;;;;;;;9.65;3.28;;;;;;;24.83;67.73;94999.38;4937183;29;20314;-76
2022/06/26 05:59:39;;;;;;;3.88;3.15;;;;;;;24.54;69.21;94973.78;4936994;29;20270;-76
2022/06/26 06:02:05;;;;;;;10.70;5.30;;;;;;;24.81;69.19;95016.94;4937254;29;20241;-77
2022/06/26 06:04:31;;;;;;;9.70;5.57;;;;;;;25.09;71.20;95001.63;4937136;29;20175;-78
2022/06/26 06:06:56;;;;;;;11.10;4.80;;;;;;;25.41;67.71;94979.19;4937606;29;20223;-79
2022/06/26 06:09:22;;;;;;;6.72;4.28;;;;;;;26.14;64.98;95011.34;4937305;29;20179;-79
2022/06/26 06:11:47;;;;;;;6.95;4.30;;;;;;;26.47;64.00;95011.94;4934912;29;20961;-79
2022/06/26 06:14:12;;;;;;;9.25;4.00;;;;;;;26.73;63.62;95017.53;4933266;29;20199;-79
2022/06/26 06:16:38;;;;;;;7.85;5.20;;;;;;;26.72;65.54;95013.25;4933515;29;20183;-78
2022/06/26 06:19:04;;;;;;;8.25;5.13;;;;;;;26.56;63.61;95004.69;4932411;29;20186;-78
2022/06/26 06:21:29;;;;;;;8.45;4.20;;;;;;;26.43;65.79;95010.19;4932323;29;20174;-79
2022/06/26 06:23:55;;;;;;;4.22;3.35;;;;;;;26.59;63.84;95011.41;4932355;29;20688;-79
2022/06/26 06:26:20;;;;;;;8.60;4.07;;;;;;;26.87;64.07;95010.16;4932709;29;20186;-79
2022/06/26 06:28:46;;;;;;;9.40;3.22;;;;;;;27.42;62.47;95023.31;4933195;29;20637;-79
2022/06/26 06:31:11;;;;;;;5.78;3.05;;;;;;;27.76;62.15;95014.53;4933108;29;20254;-79
2022/06/26 06:33:37;;;;;;;5.13;3.78;;;;;;;28.02;58.08;95004.53;4934466;29;20191;-79
2022/06/26 06:36:02;;;;;;;7.80;4.20;;;;;;;28.29;58.25;95016.22;4935142;29;20181;-79
2022/06/26 06:38:28;;;;;;;5.43;2.92;;;;;;;28.32;59.04;95004.75;4935126;29;20187;-79
2022/06/26 06:40:53;;;;;;;4.15;2.95;;;;;;;28.51;58.56;94999.81;4934583;29;20179;-79
2022/06/26 06:43:19;;;;;;;5.75;3.10;;;;;;;28.27;56.62;94988.66;4935610;29;20198;-82
2022/06/26 06:45:44;;;;;;;6.18;3.03;;;;;;;28.56;59.13;95002.34;4935281;29;20790;-81
2022/06/26 06:48:09;;;;;;;7.43;2.70;;;;;;;28.89;57.16;95000.72;4935225;29;20186;-82
2022/06/26 06:50:36;;;;;;;4.03;3.63;;;;;;;29.15;56.44;95010.69;4934823;29;20691;-82
2022/06/26 06:53:02;;;;;;;7.43;2.75;;;;;;;29.13;57.06;94983.91;4935189;29;20628;-82
2022/06/26 06:55:27;;;;;;;5.25;3.17;;;;;;;29.47;56.29;95009.31;4934446;29;20274;-82
2022/06/26 06:57:53;;;;;;;5.43;3.50;;;;;;;29.57;53.31;95007.06;4934198;29;20226;-82
2022/06/26 07:00:18;;;;;;;5.20;3.40;;;;;;;29.71;54.75;95016.88;4934745;29;20222;-82
2022/06/26 07:02:43;;;;;;;5.50;3.40;;;;;;;29.81;53.86;95011.06;4934564;29;20183;-82
2022/06/26 07:05:09;;;;;;;4.22;3.10;;;;;;;29.64;53.64;94965.81;4934407;29;20175;-82
2022/06/26 07:07:36;;;;;;;4.50;3.15;;;;;;;29.84;50.65;94996.84;4917305;29;20301;-82
2022/06/26 07:10:02;;;;;;;4.90;2.92;;;;;;;29.63;53.54;95004.94;4933985;29;20183;-82
2022/06/26 07:12:27;;;;;;;4.88;3.00;;;;;;;29.69;54.83;95000.09;4934368;29;20187;-82
2022/06/26 07:14:53;;;;;;;6.25;3.03;;;;;;;29.59;55.06;94968.69;4934682;29;20201;-82
2022/06/26 07:17:21;;;;;;;5.50;2.72;;;;;;;29.86;52.70;95008.16;4936371;29;20180;-82
2022/06/26 07:19:46;;;;;;;4.10;2.85;;;;;;;29.39;52.48;95008.25;4935711;29;20179;-79
2022/06/26 07:22:12;;;;;;;4.90;2.70;;;;;;;28.86;53.70;95006.78;4935700;29;20261;-78
2022/06/26 07:24:39;;;;;;;8.20;3.05;;;;;;;28.27;54.54;95013.03;4935135;29;20186;-78
2022/06/26 07:27:05;;;;;;;4.15;2.60;;;;;;;27.89;57.55;94999.28;4932240;29;20242;-79
2022/06/26 07:29:31;;;;;;;6.93;2.70;;;;;;;28.41;59.57;95000.91;4934350;29;20187;-79
2022/06/26 07:31:56;;;;;;;8.35;3.42;;;;;;;28.78;56.61;94999.47;4931950;29;20206;-79
2022/06/26 07:34:23;;;;;;;6.70;3.15;;;;;;;29.34;56.67;95002.16;4936453;29;20282;-80
2022/06/26 07:36:50;;;;;;;6.10;2.78;;;;;;;29.73;56.64;94998.34;4938705;29;20186;-79
2022/06/26 07:39:18;;;;;;;5.60;2.80;;;;;;;30.04;53.12;95003.44;4930689;29;20180;-80
2022/06/26 07:41:44;;;;;;;4.95;2.75;;;;;;;30.01;53.61;94997.53;4933573;29;20179;-79
2022/06/26 07:44:10;;;;;;;10.65;3.20;;;;;;;30.11;54.09;94993.63;4934749;29;20262;-79
2022/06/26 07:46:36;;;;;;;3.47;2.83;;;;;;;30.38;50.73;95000.44;4937787;29;20637;-79
2022/06/26 07:49:03;;;;;;;4.57;2.97;;;;;;;30.34;50.47;95000.34;4936658;29;20653;-80
2022/06/26 07:51:29;;;;;;;4.60;2.78;;;;;;;30.36;51.88;94997.25;4917926;29;20184;-79
2022/06/26 07:53:55;;;;;;;4.30;2.55;;;;;;;30.40;52.55;94998.19;4933339;29;20202;-81
2022/06/26 07:56:20;;;;;;;6.80;3.42;;;;;;;30.47;52.21;95001.16;4932720;29;20580;-78
2022/06/26 07:58:46;;;;;;;6.03;3.53;;;;;;;30.22;49.23;94997.53;4933705;29;20229;-78
2022/06/26 08:01:11;;;;;;;4.50;2.95;;;;;;;29.93;49.64;94998.34;4929601;29;20267;-78
2022/06/26 08:03:37;;;;;;;8.70;3.13;;;;;;;29.43;49.85;94971.19;4935544;29;20190;-79
2022/06/26 08:06:03;;;;;;;3.85;2.50;;;;;;;29.32;53.13;94980.00;4935728;29;20183;-78
2022/06/26 08:08:28;;;;;;;4.68;2.72;;;;;;;29.55;52.99;94995.72;4935983;29;20187;-78
2022/06/26 08:10:53;;;;;;;7.03;3.10;;;;;;;29.45;51.84;94998.00;4931859;29;20197;-78
2022/06/26 08:13:19;;;;;;;6.03;2.42;;;;;;;29.11;55.17;94964.44;4934973;29;20239;-79
2022/06/26 08:15:44;;;;;;;5.30;3.22;;;;;;;29.78;53.26;94981.84;4942008;29;20222;-79
2022/06/26 08:18:11;;;;;;;7.47;3.10;;;;;;;29.90;55.17;94973.78;4935901;29;20571;-78
2022/06/26 08:20:37;;;;;;;5.90;3.72;;;;;;;30.16;50.54;94963.56;4932579;29;20191;-79
2022/06/26 08:23:02;;;;;;;4.65;2.90;;;;;;;30.47;53.10;94992.22;4933150;29;20235;-78
2022/06/26 08:25:28;;;;;;;6.10;2.85;;;;;;;30.64;51.32;94989.38;4937383;29;20178;-78
2022/06/26 08:27:53;;;;;;;10.00;5.32;;;;;;;30.82;50.44;94992.72;4933123;29;20277;-79
2022/06/26 08:30:19;;;;;;;6.68;3.25;;;;;;;30.40;46.24;94960.16;4931002;29;20629;-79
2022/06/26 08:32:44;;;;;;;6.90;3.97;;;;;;;29.61;48.61;94986.25;4932211;29;20191;-79
2022/06/26 08:35:12;;;;;;;4.80;3.15;;;;;;;29.49;51.61;94983.44;4934279;29;20210;-77
2022/06/26 08:37:37;;;;;;;6.90;3.13;;;;;;;29.00;51.73;94962.41;4921402;29;20202;-77
2022/06/26 08:40:03;;;;;;;6.50;3.10;;;;;;;28.68;55.20;94994.34;4915305;29;20186;-77
2022/06/26 08:42:30;;;;;;;8.25;3.30;;;;;;;28.95;56.28;94992.41;4935490;29;20671;-80
2022/06/26 08:44:59;;;;;;;5.18;3.53;;;;;;;29.37;55.12;94999.63;4933724;29;20239;-77
2022/06/26 08:47:26;;;;;;;5.22;2.75;;;;;;;29.64;48.05;94998.38;4936120;29;20559;-78
2022/06/26 08:49:52;;;;;;;6.25;2.40;;;;;;;29.69;48.25;94964.81;4934654;29;20186;-79
2022/06/26 08:52:20;;;;;;;4.25;2.50;;;;;;;30.06;50.63;94995.75;4934814;29;20182;-79
2022/06/26 08:54:46;;;;;;;4.57;2.85;;;;;;;29.75;46.18;94990.66;4936302;29;20199;-78
2022/06/26 08:57:13;;;;;;;4.57;2.45;;;;;;;28.96;49.46;94999.44;4936981;29;20207;-78
2022/06/26 08:59:38;;;;;;;5.50;2.30;;;;;;;28.83;51.99;94988.44;4933662;29;20279;-78
2022/06/26 09:02:04;;;;;;;2.72;2.10;;;;;;;28.72;53.66;94956.56;4931909;29;20607;-79
2022/06/26 09:04:30;;;;;;;3.45;2.28;;;;;;;28.90;50.10;94988.75;4936232;29;20641;-78
2022/06/26 09:06:56;;;;;;;2.97;2.13;;;;;;;29.44;53.00;94994.50;4931193;29;20184;-78
2022/06/26 09:09:27;;;;;;;4.30;2.38;;;;;;;29.37;52.31;94969.00;4934122;29;20191;-78
2022/06/26 09:11:55;;;;;;;5.35;2.80;;;;;;;29.39;48.75;94983.84;4935303;29;20730;-78
2022/06/26 09:14:21;;;;;;;3.40;2.08;;;;;;;29.30;50.54;94984.97;4935475;29;20206;-78
2022/06/26 09:16:51;;;;;;;6.80;2.30;;;;;;;29.04;47.46;94987.75;4933653;29;20621;-78
2022/06/26 09:19:20;;;;;;;6.65;2.92;;;;;;;28.75;48.37;94981.09;4932142;29;20194;-79
2022/06/26 09:21:47;;;;;;;8.45;2.72;;;;;;;28.69;51.09;94971.56;4938235;29;20183;-78
2022/06/26 09:24:15;;;;;;;6.70;2.50;;;;;;;28.68;50.52;94972.69;4934088;29;20664;-79
2022/06/26 09:26:43;;;;;;;7.70;2.38;;;;;;;29.02;54.70;94976.44;4942380;29;20269;-78
2022/06/26 09:29:13;;;;;;;6.97;2.78;;;;;;;29.31;50.71;94960.22;4935439;29;20179;-79
2022/06/26 09:31:39;;;;;;;6.43;3.00;;;;;;;29.46;52.01;94956.97;4935710;29;20183;-78
2022/06/26 09:34:26;;;;;;;7.18;2.20;;;;;;;29.56;48.99;94972.88;4935919;29;20218;-78
2022/06/26 09:36:58;;;;;;;3.08;2.03;;;;;;;28.97;49.07;94960.38;4937366;29;20192;-78
2022/06/26 09:39:24;;;;;;;7.03;2.88;;;;;;;28.83;54.20;94974.91;4937900;29;20175;-78
2022/06/26 09:41:49;;;;;;;4.60;3.05;;;;;;;28.85;52.97;94959.13;4938248;29;20210;-79
2022/06/26 09:44:22;;;;;;;7.03;2.35;;;;;;;29.14;53.92;94974.66;4937264;29;21027;-79
2022/06/26 09:46:47;;;;;;;3.08;2.53;;;;;;;29.20;50.48;94965.22;4938309;29;20187;-79
2022/06/26 09:49:13;;;;;;;6.28;2.47;;;;;;;29.40;51.06;94988.13;4941340;29;20198;-79
2022/06/26 09:51:40;;;;;;;4.28;1.92;;;;;;;29.57;47.12;94984.53;4939439;29;20191;-80
2022/06/26 09:54:06;;;;;;;5.43;1.98;;;;;;;29.38;45.00;94960.53;4938008;29;20203;-79
2022/06/26 09:56:32;;;;;;;3.75;1.95;;;;;;;29.41;48.15;94970.72;4941211;28;20671;-80
2022/06/26 09:58:59;;;;;;;4.95;2.95;;;;;;;29.60;49.45;94983.88;4937938;29;20195;-83
2022/06/26 10:07:00;;;;;;;3.67;1.98;;;;;;;29.46;45.45;94961.59;4937806;29;20234;-82
2022/06/26 10:09:27;;;;;;;2.67;2.00;;;;;;;29.61;48.64;94959.13;4938215;29;20183;-82
2022/06/26 10:11:56;;;;;;;3.90;2.08;;;;;;;29.73;50.67;94965.75;4938329;29;20630;-82
2022/06/26 10:14:35;;;;;;;2.58;2.10;;;;;;;29.88;51.54;94965.16;4937470;29;20214;-82
2022/06/26 10:17:16;;;;;;;3.63;1.92;;;;;;;30.04;49.83;94968.91;4937697;29;20167;-82
2022/06/26 10:19:52;;;;;;;4.72;1.90;;;;;;;29.95;46.42;94933.69;4937623;29;20167;-82
2022/06/26 10:22:18;;;;;;;5.50;2.30;;;;;;;30.04;46.17;94958.06;4936944;29;20191;-82
2022/06/26 10:24:59;;;;;;;4.72;2.30;;;;;;;29.82;47.79;94961.88;4929918;29;20611;-82
2022/06/26 10:27:32;;;;;;;4.18;2.95;;;;;;;29.42;47.12;94931.59;4929736;29;20571;-81
2022/06/26 10:30:07;;;;;;;3.53;2.72;;;;;;;29.43;48.82;94949.47;4928390;29;20195;-82
2022/06/26 10:32:33;;;;;;;5.68;2.40;;;;;;;29.41;49.22;94940.06;4933060;29;20204;-82
2022/06/26 10:34:58;;;;;;;5.47;2.65;;;;;;;29.43;48.01;94941.34;4936555;29;20196;-81
2022/06/26 10:37:25;;;;;;;4.68;2.38;;;;;;;29.21;51.08;94936.16;4930655;29;20194;-80
2022/06/26 10:39:52;;;;;;;5.50;2.53;;;;;;;29.30;49.58;94938.84;4930107;29;20192;-80
2022/06/26 10:45:29;;;;;;;5.78;2.63;;;;;;;29.40;48.33;94943.94;4855110;29;20258;-82
2022/06/26 10:48:01;;;;;;;3.13;1.90;;;;;;;29.25;49.26;94918.09;4858421;29;20216;-82
2022/06/26 10:50:28;;;;;;;4.72;2.20;;;;;;;29.10;50.36;94937.66;4898615;29;20649;-82
2022/06/26 10:53:11;;;;;;;4.70;2.53;;;;;;;28.70;46.90;94927.09;4935387;29;20187;-81
2022/06/26 10:55:38;;;;;;;5.47;2.13;;;;;;;28.24;51.23;94940.53;4935329;29;20250;-82
2022/06/26 10:58:04;;;;;;;2.50;1.80;;;;;;;28.20;49.74;94934.16;4936207;29;20568;-82
2022/06/26 11:00:29;;;;;;;2.65;1.98;;;;;;;28.19;48.62;94930.69;4936039;29;20219;-83
2022/06/26 11:02:54;;;;;;;3.88;2.00;;;;;;;28.34;46.40;94932.09;4935993;29;20179;-83
2022/06/26 11:05:20;;;;;;;6.18;2.50;;;;;;;28.12;48.94;94895.91;4936192;29;20164;-83
2022/06/26 11:07:51;;;;;;;2.72;1.73;;;;;;;28.40;45.86;94930.81;4935947;29;20243;-81
2022/06/26 11:10:25;;;;;;;2.60;1.70;;;;;;;28.61;47.04;94933.66;4936306;29;20179;-80
2022/06/26 11:12:52;;;;;;;6.18;1.90;;;;;;;28.71;47.70;94933.31;4936118;29;20234;-81
2022/06/26 11:15:33;;;;;;;2.63;1.40;;;;;;;28.76;46.24;94904.13;4935759;29;20234;-80
2022/06/26 11:18:01;;;;;;;6.22;1.98;;;;;;;29.13;46.85;94929.66;4934937;29;20660;-80
2022/06/26 11:20:50;;;;;;;3.83;1.83;;;;;;;29.30;46.57;94931.50;4936131;29;20547;-80
2022/06/26 11:23:20;;;;;;;6.45;2.10;;;;;;;29.42;45.98;94920.75;4932491;29;20179;-81
2022/06/26 11:25:53;;;;;;;3.40;1.70;;;;;;;29.50;44.68;94925.31;4936218;29;20230;-79
2022/06/26 11:28:18;;;;;;;2.67;1.17;;;;;;;29.47;46.74;94922.50;4936087;29;20179;-81
2022/06/26 11:30:46;;;;;;;2.33;1.85;;;;;;;29.50;47.27;94922.63;4936194;29;20708;-80
2022/06/26 11:33:12;;;;;;;3.38;1.75;;;;;;;29.32;46.97;94904.81;4935746;29;20632;-81
2022/06/26 11:35:37;;;;;;;3.05;1.58;;;;;;;29.30;48.43;94917.13;4935966;29;20234;-80
2022/06/26 11:38:13;;;;;;;2.05;1.88;;;;;;;29.21;48.39;94919.91;4936005;29;20616;-80
2022/06/26 11:40:40;;;;;;;3.67;1.73;;;;;;;29.10;50.78;94922.16;4935991;29;20183;-80
2022/06/26 11:43:06;;;;;;;4.45;1.80;;;;;;;28.96;49.99;94923.53;4935649;29;20187;-83